sensor_id;sensor_type;location;lat;lon;timestamp;P1;durP1;ratioP1;P2;durP2;ratioP2
36213;SDS011;37652;50.400;30.628;2022-08-21T00:01:35;29.52;;;9.65;;
36213;SDS011;37652;50.400;30.628;2022-08-21T00:03:36;21.40;;;9.55;;
36213;SDS011;37652;50.400;30.628;2022-08-21T00:05:38;28.17;;;9.40;;
36213;SDS011;37652;50.400;30.628;2022-08-21T00:07:41;33.90;;;10.25;;
36213;SDS011;37652;50.400;30.628;2022-08-21T00:11:43;29.75;;;11.00;;
36213;SDS011;37652;50.400;30.628;2022-08-21T00:13:44;28.25;;;10.52;;
36213;SDS011;37652;50.400;30.628;2022-08-21T00:15:45;24.92;;;9.73;;
36213;SDS011;37652;50.400;30.628;2022-08-21T00:17:47;30.45;;;10.75;;
36213;SDS011;37652;50.400;30.628;2022-08-21T00:19:48;30.05;;;9.98;;
36213;SDS011;37652;50.400;30.628;2022-08-21T00:21:50;23.05;;;9.25;;
36213;SDS011;37652;50.400;30.628;2022-08-21T00:23:52;26.73;;;9.43;;
36213;SDS011;37652;50.400;30.628;2022-08-21T00:25:53;21.20;;;9.23;;
36213;SDS011;37652;50.400;30.628;2022-08-21T00:27:54;30.25;;;8.90;;
36213;SDS011;37652;50.400;30.628;2022-08-21T00:29:56;25.63;;;9.75;;
36213;SDS011;37652;50.400;30.628;2022-08-21T00:31:56;25.15;;;9.70;;
36213;SDS011;37652;50.400;30.628;2022-08-21T00:33:58;30.92;;;9.52;;
36213;SDS011;37652;50.400;30.628;2022-08-21T00:35:59;29.55;;;9.65;;
36213;SDS011;37652;50.400;30.628;2022-08-21T00:38:00;28.38;;;9.27;;
36213;SDS011;37652;50.400;30.628;2022-08-21T00:40:02;36.97;;;10.30;;
36213;SDS011;37652;50.400;30.628;2022-08-21T00:42:03;22.55;;;9.20;;
36213;SDS011;37652;50.400;30.628;2022-08-21T00:44:06;22.20;;;9.50;;
36213;SDS011;37652;50.400;30.628;2022-08-21T00:46:08;27.67;;;10.25;;
36213;SDS011;37652;50.400;30.628;2022-08-21T00:48:08;26.33;;;9.70;;
36213;SDS011;37652;50.400;30.628;2022-08-21T00:50:10;28.67;;;9.45;;
36213;SDS011;37652;50.400;30.628;2022-08-21T00:52:13;25.33;;;9.25;;
36213;SDS011;37652;50.400;30.628;2022-08-21T00:54:19;29.10;;;9.23;;
36213;SDS011;37652;50.400;30.628;2022-08-21T00:56:24;28.55;;;9.68;;
36213;SDS011;37652;50.400;30.628;2022-08-21T01:00:28;21.83;;;8.80;;
36213;SDS011;37652;50.400;30.628;2022-08-21T01:02:31;26.70;;;9.23;;
36213;SDS011;37652;50.400;30.628;2022-08-21T01:04:34;29.80;;;9.95;;
36213;SDS011;37652;50.400;30.628;2022-08-21T01:06:36;24.25;;;9.45;;
36213;SDS011;37652;50.400;30.628;2022-08-21T01:08:36;26.65;;;9.75;;
36213;SDS011;37652;50.400;30.628;2022-08-21T01:10:37;31.60;;;10.75;;
36213;SDS011;37652;50.400;30.628;2022-08-21T01:12:38;32.55;;;9.98;;
36213;SDS011;37652;50.400;30.628;2022-08-21T01:14:40;18.60;;;8.98;;
36213;SDS011;37652;50.400;30.628;2022-08-21T01:16:46;26.52;;;9.23;;
36213;SDS011;37652;50.400;30.628;2022-08-21T01:18:50;21.17;;;9.25;;
36213;SDS011;37652;50.400;30.628;2022-08-21T01:20:59;35.75;;;9.93;;
36213;SDS011;37652;50.400;30.628;2022-08-21T01:23:16;29.60;;;9.07;;
36213;SDS011;37652;50.400;30.628;2022-08-21T01:25:17;30.40;;;9.30;;
36213;SDS011;37652;50.400;30.628;2022-08-21T01:27:20;28.67;;;8.68;;
36213;SDS011;37652;50.400;30.628;2022-08-21T01:29:36;27.65;;;9.20;;
36213;SDS011;37652;50.400;30.628;2022-08-21T01:31:42;19.67;;;8.07;;
36213;SDS011;37652;50.400;30.628;2022-08-21T01:35:44;25.33;;;8.88;;
36213;SDS011;37652;50.400;30.628;2022-08-21T01:37:45;29.63;;;9.10;;
36213;SDS011;37652;50.400;30.628;2022-08-21T01:39:46;27.52;;;8.55;;
36213;SDS011;37652;50.400;30.628;2022-08-21T01:41:47;25.90;;;8.25;;
36213;SDS011;37652;50.400;30.628;2022-08-21T01:43:48;24.63;;;8.80;;
36213;SDS011;37652;50.400;30.628;2022-08-21T01:45:49;28.83;;;9.40;;
36213;SDS011;37652;50.400;30.628;2022-08-21T01:47:51;18.25;;;8.30;;
36213;SDS011;37652;50.400;30.628;2022-08-21T01:49:51;23.05;;;8.55;;
36213;SDS011;37652;50.400;30.628;2022-08-21T01:53:53;27.43;;;8.43;;
36213;SDS011;37652;50.400;30.628;2022-08-21T01:55:54;27.75;;;8.70;;
36213;SDS011;37652;50.400;30.628;2022-08-21T01:57:54;27.60;;;8.18;;
36213;SDS011;37652;50.400;30.628;2022-08-21T01:59:56;33.28;;;9.25;;
36213;SDS011;37652;50.400;30.628;2022-08-21T02:01:57;25.08;;;9.02;;
36213;SDS011;37652;50.400;30.628;2022-08-21T02:03:58;23.50;;;9.55;;
36213;SDS011;37652;50.400;30.628;2022-08-21T02:05:59;20.13;;;8.02;;
36213;SDS011;37652;50.400;30.628;2022-08-21T02:08:00;27.63;;;12.05;;
36213;SDS011;37652;50.400;30.628;2022-08-21T02:10:00;21.65;;;10.32;;
36213;SDS011;37652;50.400;30.628;2022-08-21T02:12:01;28.40;;;10.23;;
36213;SDS011;37652;50.400;30.628;2022-08-21T02:14:02;23.38;;;9.57;;
36213;SDS011;37652;50.400;30.628;2022-08-21T02:16:03;22.40;;;8.65;;
36213;SDS011;37652;50.400;30.628;2022-08-21T02:18:05;31.13;;;8.68;;
36213;SDS011;37652;50.400;30.628;2022-08-21T02:20:06;23.10;;;9.55;;
36213;SDS011;37652;50.400;30.628;2022-08-21T02:22:08;25.48;;;8.15;;
36213;SDS011;37652;50.400;30.628;2022-08-21T02:24:10;28.98;;;8.35;;
36213;SDS011;37652;50.400;30.628;2022-08-21T02:26:11;21.27;;;7.35;;
36213;SDS011;37652;50.400;30.628;2022-08-21T02:28:13;23.65;;;8.35;;
36213;SDS011;37652;50.400;30.628;2022-08-21T02:30:16;18.60;;;8.45;;
36213;SDS011;37652;50.400;30.628;2022-08-21T02:32:22;22.98;;;8.60;;
36213;SDS011;37652;50.400;30.628;2022-08-21T02:34:22;22.85;;;8.25;;
36213;SDS011;37652;50.400;30.628;2022-08-21T02:36:23;20.33;;;7.95;;
36213;SDS011;37652;50.400;30.628;2022-08-21T02:38:26;22.40;;;7.75;;
36213;SDS011;37652;50.400;30.628;2022-08-21T02:40:31;19.65;;;7.93;;
36213;SDS011;37652;50.400;30.628;2022-08-21T02:42:34;24.40;;;7.60;;
36213;SDS011;37652;50.400;30.628;2022-08-21T02:44:36;22.05;;;8.05;;
36213;SDS011;37652;50.400;30.628;2022-08-21T02:46:37;25.65;;;8.55;;
36213;SDS011;37652;50.400;30.628;2022-08-21T02:48:37;23.98;;;7.20;;
36213;SDS011;37652;50.400;30.628;2022-08-21T02:50:40;23.30;;;7.75;;
36213;SDS011;37652;50.400;30.628;2022-08-21T02:52:43;30.05;;;8.00;;
36213;SDS011;37652;50.400;30.628;2022-08-21T02:54:45;31.75;;;8.48;;
36213;SDS011;37652;50.400;30.628;2022-08-21T02:56:45;23.70;;;8.25;;
36213;SDS011;37652;50.400;30.628;2022-08-21T02:58:47;27.98;;;7.80;;
36213;SDS011;37652;50.400;30.628;2022-08-21T03:00:51;20.80;;;7.82;;
36213;SDS011;37652;50.400;30.628;2022-08-21T03:02:53;22.83;;;7.32;;
36213;SDS011;37652;50.400;30.628;2022-08-21T03:04:56;29.80;;;8.55;;
36213;SDS011;37652;50.400;30.628;2022-08-21T03:06:57;21.85;;;7.13;;
36213;SDS011;37652;50.400;30.628;2022-08-21T03:08:57;34.70;;;8.30;;
36213;SDS011;37652;50.400;30.628;2022-08-21T03:10:58;19.80;;;6.93;;
36213;SDS011;37652;50.400;30.628;2022-08-21T03:13:00;23.08;;;7.28;;
36213;SDS011;37652;50.400;30.628;2022-08-21T03:15:03;25.45;;;7.82;;
36213;SDS011;37652;50.400;30.628;2022-08-21T03:17:06;25.00;;;8.18;;
36213;SDS011;37652;50.400;30.628;2022-08-21T03:19:07;20.75;;;6.78;;
36213;SDS011;37652;50.400;30.628;2022-08-21T03:21:08;25.30;;;7.32;;
36213;SDS011;37652;50.400;30.628;2022-08-21T03:23:08;24.50;;;7.43;;
36213;SDS011;37652;50.400;30.628;2022-08-21T03:25:09;18.95;;;6.85;;
36213;SDS011;37652;50.400;30.628;2022-08-21T03:27:10;21.67;;;7.97;;
36213;SDS011;37652;50.400;30.628;2022-08-21T03:29:13;24.02;;;7.22;;
36213;SDS011;37652;50.400;30.628;2022-08-21T03:31:13;27.73;;;7.22;;
36213;SDS011;37652;50.400;30.628;2022-08-21T03:33:15;29.00;;;8.02;;
36213;SDS011;37652;50.400;30.628;2022-08-21T03:35:16;20.08;;;6.32;;
36213;SDS011;37652;50.400;30.628;2022-08-21T03:37:18;26.25;;;7.35;;
36213;SDS011;37652;50.400;30.628;2022-08-21T03:39:18;18.88;;;7.15;;
36213;SDS011;37652;50.400;30.628;2022-08-21T03:41:19;23.38;;;7.30;;
36213;SDS011;37652;50.400;30.628;2022-08-21T03:43:20;23.27;;;7.47;;
36213;SDS011;37652;50.400;30.628;2022-08-21T03:45:21;28.15;;;7.35;;
36213;SDS011;37652;50.400;30.628;2022-08-21T03:47:22;28.50;;;7.20;;
36213;SDS011;37652;50.400;30.628;2022-08-21T03:49:24;29.10;;;6.85;;
36213;SDS011;37652;50.400;30.628;2022-08-21T03:51:25;26.75;;;5.85;;
36213;SDS011;37652;50.400;30.628;2022-08-21T03:53:25;24.25;;;7.03;;
36213;SDS011;37652;50.400;30.628;2022-08-21T03:55:27;25.10;;;5.88;;
36213;SDS011;37652;50.400;30.628;2022-08-21T03:57:27;26.92;;;6.13;;
36213;SDS011;37652;50.400;30.628;2022-08-21T03:59:28;27.35;;;6.53;;
36213;SDS011;37652;50.400;30.628;2022-08-21T04:01:29;34.72;;;7.15;;
36213;SDS011;37652;50.400;30.628;2022-08-21T04:03:30;26.23;;;6.53;;
36213;SDS011;37652;50.400;30.628;2022-08-21T04:05:30;25.85;;;7.30;;
36213;SDS011;37652;50.400;30.628;2022-08-21T04:07:32;26.48;;;6.80;;
36213;SDS011;37652;50.400;30.628;2022-08-21T04:09:33;29.00;;;7.50;;
36213;SDS011;37652;50.400;30.628;2022-08-21T04:11:35;25.67;;;6.15;;
36213;SDS011;37652;50.400;30.628;2022-08-21T04:13:36;23.40;;;6.57;;
36213;SDS011;37652;50.400;30.628;2022-08-21T04:15:38;18.38;;;6.18;;
36213;SDS011;37652;50.400;30.628;2022-08-21T04:17:39;29.23;;;6.35;;
36213;SDS011;37652;50.400;30.628;2022-08-21T04:19:40;20.98;;;6.13;;
36213;SDS011;37652;50.400;30.628;2022-08-21T04:21:41;23.67;;;5.72;;
36213;SDS011;37652;50.400;30.628;2022-08-21T04:25:42;27.07;;;5.80;;
36213;SDS011;37652;50.400;30.628;2022-08-21T04:27:43;31.05;;;5.63;;
36213;SDS011;37652;50.400;30.628;2022-08-21T04:29:44;19.30;;;5.80;;
36213;SDS011;37652;50.400;30.628;2022-08-21T04:31:44;23.13;;;5.32;;
36213;SDS011;37652;50.400;30.628;2022-08-21T04:33:45;24.17;;;7.60;;
36213;SDS011;37652;50.400;30.628;2022-08-21T04:35:46;28.45;;;6.22;;
36213;SDS011;37652;50.400;30.628;2022-08-21T04:39:48;23.75;;;5.25;;
36213;SDS011;37652;50.400;30.628;2022-08-21T04:41:49;31.75;;;5.72;;
36213;SDS011;37652;50.400;30.628;2022-08-21T04:43:49;31.25;;;6.47;;
36213;SDS011;37652;50.400;30.628;2022-08-21T04:45:50;25.85;;;6.03;;
36213;SDS011;37652;50.400;30.628;2022-08-21T04:47:52;30.38;;;6.50;;
36213;SDS011;37652;50.400;30.628;2022-08-21T04:49:55;18.60;;;5.40;;
36213;SDS011;37652;50.400;30.628;2022-08-21T04:51:55;19.75;;;6.10;;
36213;SDS011;37652;50.400;30.628;2022-08-21T04:56:02;20.98;;;7.05;;
36213;SDS011;37652;50.400;30.628;2022-08-21T04:58:09;22.48;;;6.30;;
36213;SDS011;37652;50.400;30.628;2022-08-21T05:00:13;21.52;;;5.90;;
36213;SDS011;37652;50.400;30.628;2022-08-21T05:02:14;26.92;;;5.90;;
36213;SDS011;37652;50.400;30.628;2022-08-21T05:04:16;21.25;;;6.13;;
36213;SDS011;37652;50.400;30.628;2022-08-21T05:06:19;20.83;;;5.43;;
36213;SDS011;37652;50.400;30.628;2022-08-21T05:08:21;24.77;;;5.30;;
36213;SDS011;37652;50.400;30.628;2022-08-21T05:10:25;17.33;;;5.70;;
36213;SDS011;37652;50.400;30.628;2022-08-21T05:14:27;26.67;;;6.10;;
36213;SDS011;37652;50.400;30.628;2022-08-21T05:16:27;22.85;;;6.05;;
36213;SDS011;37652;50.400;30.628;2022-08-21T05:18:28;24.08;;;5.75;;
36213;SDS011;37652;50.400;30.628;2022-08-21T05:20:29;18.23;;;5.25;;
36213;SDS011;37652;50.400;30.628;2022-08-21T05:24:30;27.57;;;6.00;;
36213;SDS011;37652;50.400;30.628;2022-08-21T05:26:32;18.40;;;6.53;;
36213;SDS011;37652;50.400;30.628;2022-08-21T05:28:33;29.08;;;5.40;;
36213;SDS011;37652;50.400;30.628;2022-08-21T05:30:35;28.98;;;6.25;;
36213;SDS011;37652;50.400;30.628;2022-08-21T05:32:36;30.52;;;6.95;;
36213;SDS011;37652;50.400;30.628;2022-08-21T05:36:38;23.20;;;6.13;;
36213;SDS011;37652;50.400;30.628;2022-08-21T05:38:39;19.55;;;5.10;;
36213;SDS011;37652;50.400;30.628;2022-08-21T05:40:40;26.42;;;5.85;;
36213;SDS011;37652;50.400;30.628;2022-08-21T05:44:41;19.03;;;6.20;;
36213;SDS011;37652;50.400;30.628;2022-08-21T05:48:43;31.83;;;5.93;;
36213;SDS011;37652;50.400;30.628;2022-08-21T05:50:45;26.35;;;5.60;;
36213;SDS011;37652;50.400;30.628;2022-08-21T05:52:47;25.27;;;6.30;;
36213;SDS011;37652;50.400;30.628;2022-08-21T05:54:48;27.52;;;6.68;;
36213;SDS011;37652;50.400;30.628;2022-08-21T05:56:49;31.20;;;5.75;;
36213;SDS011;37652;50.400;30.628;2022-08-21T06:00:51;24.07;;;5.33;;
36213;SDS011;37652;50.400;30.628;2022-08-21T06:02:52;16.13;;;5.25;;
36213;SDS011;37652;50.400;30.628;2022-08-21T06:06:56;29.35;;;7.68;;
36213;SDS011;37652;50.400;30.628;2022-08-21T06:10:58;28.73;;;6.20;;
36213;SDS011;37652;50.400;30.628;2022-08-21T06:13:00;22.40;;;6.55;;
36213;SDS011;37652;50.400;30.628;2022-08-21T06:17:02;27.20;;;6.72;;
36213;SDS011;37652;50.400;30.628;2022-08-21T06:19:07;26.52;;;6.75;;
36213;SDS011;37652;50.400;30.628;2022-08-21T06:23:08;31.13;;;7.25;;
36213;SDS011;37652;50.400;30.628;2022-08-21T06:27:10;21.73;;;6.20;;
36213;SDS011;37652;50.400;30.628;2022-08-21T06:31:17;33.40;;;8.00;;
36213;SDS011;37652;50.400;30.628;2022-08-21T06:33:19;31.83;;;8.25;;
36213;SDS011;37652;50.400;30.628;2022-08-21T06:37:21;22.92;;;7.03;;
36213;SDS011;37652;50.400;30.628;2022-08-21T06:41:22;32.40;;;6.80;;
36213;SDS011;37652;50.400;30.628;2022-08-21T06:45:24;20.90;;;6.55;;
36213;SDS011;37652;50.400;30.628;2022-08-21T06:49:25;28.95;;;5.65;;
36213;SDS011;37652;50.400;30.628;2022-08-21T06:53:27;25.10;;;5.68;;
36213;SDS011;37652;50.400;30.628;2022-08-21T06:57:28;27.13;;;5.50;;
36213;SDS011;37652;50.400;30.628;2022-08-21T07:01:30;28.58;;;6.05;;
36213;SDS011;37652;50.400;30.628;2022-08-21T07:03:32;32.47;;;5.68;;
36213;SDS011;37652;50.400;30.628;2022-08-21T07:05:37;37.50;;;6.68;;
36213;SDS011;37652;50.400;30.628;2022-08-21T07:07:38;22.92;;;6.45;;
36213;SDS011;37652;50.400;30.628;2022-08-21T07:09:38;28.05;;;6.68;;
36213;SDS011;37652;50.400;30.628;2022-08-21T07:13:40;23.75;;;6.43;;
36213;SDS011;37652;50.400;30.628;2022-08-21T07:15:41;24.30;;;6.85;;
36213;SDS011;37652;50.400;30.628;2022-08-21T07:17:42;23.88;;;6.75;;
36213;SDS011;37652;50.400;30.628;2022-08-21T07:19:43;27.90;;;6.20;;
36213;SDS011;37652;50.400;30.628;2022-08-21T07:21:44;24.00;;;5.50;;
36213;SDS011;37652;50.400;30.628;2022-08-21T07:23:46;28.25;;;5.68;;
36213;SDS011;37652;50.400;30.628;2022-08-21T07:25:48;27.77;;;6.43;;
36213;SDS011;37652;50.400;30.628;2022-08-21T07:27:49;30.42;;;6.10;;
36213;SDS011;37652;50.400;30.628;2022-08-21T07:29:50;23.67;;;5.43;;
36213;SDS011;37652;50.400;30.628;2022-08-21T07:31:51;24.23;;;5.13;;
36213;SDS011;37652;50.400;30.628;2022-08-21T07:33:52;27.80;;;6.03;;
36213;SDS011;37652;50.400;30.628;2022-08-21T07:35:53;25.67;;;4.85;;
36213;SDS011;37652;50.400;30.628;2022-08-21T07:37:54;21.83;;;5.32;;
36213;SDS011;37652;50.400;30.628;2022-08-21T07:39:55;30.52;;;5.88;;
36213;SDS011;37652;50.400;30.628;2022-08-21T07:41:56;33.88;;;5.80;;
36213;SDS011;37652;50.400;30.628;2022-08-21T07:43:57;36.03;;;7.57;;
36213;SDS011;37652;50.400;30.628;2022-08-21T07:45:58;22.55;;;5.70;;
36213;SDS011;37652;50.400;30.628;2022-08-21T07:47:59;25.67;;;5.30;;
36213;SDS011;37652;50.400;30.628;2022-08-21T07:50:00;20.42;;;5.40;;
36213;SDS011;37652;50.400;30.628;2022-08-21T07:52:01;28.38;;;6.13;;
36213;SDS011;37652;50.400;30.628;2022-08-21T07:54:02;25.98;;;5.65;;
36213;SDS011;37652;50.400;30.628;2022-08-21T07:56:03;31.80;;;5.90;;
36213;SDS011;37652;50.400;30.628;2022-08-21T07:58:06;26.02;;;5.28;;
36213;SDS011;37652;50.400;30.628;2022-08-21T08:00:08;29.20;;;6.00;;
36213;SDS011;37652;50.400;30.628;2022-08-21T08:02:21;36.72;;;5.97;;
36213;SDS011;37652;50.400;30.628;2022-08-21T08:04:26;24.33;;;4.80;;
36213;SDS011;37652;50.400;30.628;2022-08-21T08:06:27;31.60;;;5.20;;
36213;SDS011;37652;50.400;30.628;2022-08-21T08:08:28;24.05;;;5.38;;
36213;SDS011;37652;50.400;30.628;2022-08-21T08:10:29;34.95;;;5.78;;
36213;SDS011;37652;50.400;30.628;2022-08-21T08:12:30;34.67;;;5.72;;
36213;SDS011;37652;50.400;30.628;2022-08-21T08:14:31;30.30;;;6.00;;
36213;SDS011;37652;50.400;30.628;2022-08-21T08:16:32;29.00;;;6.03;;
36213;SDS011;37652;50.400;30.628;2022-08-21T08:18:32;37.58;;;5.75;;
36213;SDS011;37652;50.400;30.628;2022-08-21T08:20:33;32.67;;;5.38;;
36213;SDS011;37652;50.400;30.628;2022-08-21T08:22:35;25.02;;;5.20;;
36213;SDS011;37652;50.400;30.628;2022-08-21T08:24:40;30.83;;;5.55;;
36213;SDS011;37652;50.400;30.628;2022-08-21T08:26:41;37.42;;;6.50;;
36213;SDS011;37652;50.400;30.628;2022-08-21T08:28:42;22.30;;;4.40;;
36213;SDS011;37652;50.400;30.628;2022-08-21T08:30:44;26.45;;;5.93;;
36213;SDS011;37652;50.400;30.628;2022-08-21T08:32:46;31.45;;;5.93;;
36213;SDS011;37652;50.400;30.628;2022-08-21T08:34:47;24.00;;;4.95;;
36213;SDS011;37652;50.400;30.628;2022-08-21T08:36:49;38.60;;;5.35;;
36213;SDS011;37652;50.400;30.628;2022-08-21T08:38:50;30.92;;;4.93;;
36213;SDS011;37652;50.400;30.628;2022-08-21T08:43:22;34.10;;;6.30;;
36213;SDS011;37652;50.400;30.628;2022-08-21T08:45:23;32.35;;;5.95;;
36213;SDS011;37652;50.400;30.628;2022-08-21T08:47:26;38.28;;;5.78;;
36213;SDS011;37652;50.400;30.628;2022-08-21T08:49:40;31.98;;;5.97;;
36213;SDS011;37652;50.400;30.628;2022-08-21T08:51:44;30.10;;;5.07;;
36213;SDS011;37652;50.400;30.628;2022-08-21T08:54:00;30.25;;;5.78;;
36213;SDS011;37652;50.400;30.628;2022-08-21T08:56:05;28.13;;;5.28;;
36213;SDS011;37652;50.400;30.628;2022-08-21T08:58:08;29.42;;;4.85;;
36213;SDS011;37652;50.400;30.628;2022-08-21T09:00:19;23.85;;;4.90;;
36213;SDS011;37652;50.400;30.628;2022-08-21T09:02:21;30.08;;;5.30;;
36213;SDS011;37652;50.400;30.628;2022-08-21T09:04:27;36.35;;;5.40;;
36213;SDS011;37652;50.400;30.628;2022-08-21T09:11:38;29.40;;;4.40;;
36213;SDS011;37652;50.400;30.628;2022-08-21T09:13:56;28.85;;;5.32;;
36213;SDS011;37652;50.400;30.628;2022-08-21T09:16:16;36.80;;;4.40;;
36213;SDS011;37652;50.400;30.628;2022-08-21T09:18:42;28.42;;;5.32;;
36213;SDS011;37652;50.400;30.628;2022-08-21T09:26:23;28.70;;;4.50;;
36213;SDS011;37652;50.400;30.628;2022-08-21T09:28:12;15.13;;;3.83;;
36213;SDS011;37652;50.400;30.628;2022-08-21T09:30:14;31.40;;;3.60;;
36213;SDS011;37652;50.400;30.628;2022-08-21T09:32:16;18.38;;;3.65;;
36213;SDS011;37652;50.400;30.628;2022-08-21T09:34:28;17.38;;;2.83;;
36213;SDS011;37652;50.400;30.628;2022-08-21T09:36:35;29.17;;;4.55;;
36213;SDS011;37652;50.400;30.628;2022-08-21T09:38:41;17.15;;;3.90;;
36213;SDS011;37652;50.400;30.628;2022-08-21T09:40:56;28.15;;;4.63;;
36213;SDS011;37652;50.400;30.628;2022-08-21T09:43:00;20.38;;;4.60;;
36213;SDS011;37652;50.400;30.628;2022-08-21T09:45:09;24.98;;;4.22;;
36213;SDS011;37652;50.400;30.628;2022-08-21T09:47:13;12.43;;;4.22;;
36213;SDS011;37652;50.400;30.628;2022-08-21T09:49:32;24.67;;;3.88;;
36213;SDS011;37652;50.400;30.628;2022-08-21T09:51:35;19.23;;;3.83;;
36213;SDS011;37652;50.400;30.628;2022-08-21T09:53:38;18.75;;;3.53;;
36213;SDS011;37652;50.400;30.628;2022-08-21T09:56:19;22.92;;;3.85;;
36213;SDS011;37652;50.400;30.628;2022-08-21T09:58:41;20.80;;;3.50;;
36213;SDS011;37652;50.400;30.628;2022-08-21T10:00:45;20.65;;;3.90;;
36213;SDS011;37652;50.400;30.628;2022-08-21T10:05:32;24.00;;;4.30;;
36213;SDS011;37652;50.400;30.628;2022-08-21T10:07:35;19.90;;;4.40;;
36213;SDS011;37652;50.400;30.628;2022-08-21T10:09:37;22.27;;;4.25;;
36213;SDS011;37652;50.400;30.628;2022-08-21T10:11:39;28.60;;;3.85;;
36213;SDS011;37652;50.400;30.628;2022-08-21T10:20:46;19.15;;;5.22;;
36213;SDS011;37652;50.400;30.628;2022-08-21T10:25:37;15.15;;;6.05;;
36213;SDS011;37652;50.400;30.628;2022-08-21T10:27:55;22.80;;;4.22;;
36213;SDS011;37652;50.400;30.628;2022-08-21T10:30:09;29.25;;;4.13;;
36213;SDS011;37652;50.400;30.628;2022-08-21T10:35:28;22.60;;;4.45;;
36213;SDS011;37652;50.400;30.628;2022-08-21T10:37:39;16.73;;;4.05;;
36213;SDS011;37652;50.400;30.628;2022-08-21T10:51:02;26.17;;;5.43;;
36213;SDS011;37652;50.400;30.628;2022-08-21T10:55:27;20.80;;;3.92;;
36213;SDS011;37652;50.400;30.628;2022-08-21T10:57:39;25.73;;;4.20;;
36213;SDS011;37652;50.400;30.628;2022-08-21T10:59:59;24.10;;;5.00;;
36213;SDS011;37652;50.400;30.628;2022-08-21T11:02:15;17.30;;;3.53;;
36213;SDS011;37652;50.400;30.628;2022-08-21T11:04:19;17.58;;;3.97;;
36213;SDS011;37652;50.400;30.628;2022-08-21T11:06:42;27.05;;;3.95;;
36213;SDS011;37652;50.400;30.628;2022-08-21T11:08:57;20.92;;;3.38;;
36213;SDS011;37652;50.400;30.628;2022-08-21T11:11:12;24.23;;;4.03;;
36213;SDS011;37652;50.400;30.628;2022-08-21T11:15:53;28.30;;;3.55;;
36213;SDS011;37652;50.400;30.628;2022-08-21T11:20:41;24.67;;;4.13;;
36213;SDS011;37652;50.400;30.628;2022-08-21T11:22:58;24.02;;;4.18;;
36213;SDS011;37652;50.400;30.628;2022-08-21T11:25:08;27.33;;;4.33;;
36213;SDS011;37652;50.400;30.628;2022-08-21T11:31:41;28.42;;;4.60;;
36213;SDS011;37652;50.400;30.628;2022-08-21T11:33:58;21.52;;;3.63;;
36213;SDS011;37652;50.400;30.628;2022-08-21T11:38:49;27.65;;;3.65;;
36213;SDS011;37652;50.400;30.628;2022-08-21T11:50:18;18.95;;;3.90;;
36213;SDS011;37652;50.400;30.628;2022-08-21T11:52:44;22.92;;;3.95;;
36213;SDS011;37652;50.400;30.628;2022-08-21T11:55:23;19.88;;;4.05;;
36213;SDS011;37652;50.400;30.628;2022-08-21T11:57:36;21.73;;;4.40;;
36213;SDS011;37652;50.400;30.628;2022-08-21T12:00:00;26.90;;;3.88;;
36213;SDS011;37652;50.400;30.628;2022-08-21T12:04:24;24.67;;;3.92;;
36213;SDS011;37652;50.400;30.628;2022-08-21T12:06:40;27.75;;;3.92;;
36213;SDS011;37652;50.400;30.628;2022-08-21T12:08:43;21.83;;;4.32;;
36213;SDS011;37652;50.400;30.628;2022-08-21T12:10:47;28.48;;;4.72;;
36213;SDS011;37652;50.400;30.628;2022-08-21T12:13:33;24.88;;;3.95;;
36213;SDS011;37652;50.400;30.628;2022-08-21T12:15:27;20.60;;;4.57;;
36213;SDS011;37652;50.400;30.628;2022-08-21T12:17:36;27.70;;;4.50;;
36213;SDS011;37652;50.400;30.628;2022-08-21T12:19:39;21.35;;;4.38;;
36213;SDS011;37652;50.400;30.628;2022-08-21T12:21:51;21.98;;;3.38;;
36213;SDS011;37652;50.400;30.628;2022-08-21T12:24:16;24.20;;;3.95;;
36213;SDS011;37652;50.400;30.628;2022-08-21T12:26:34;27.55;;;4.55;;
36213;SDS011;37652;50.400;30.628;2022-08-21T12:28:47;20.50;;;3.75;;
36213;SDS011;37652;50.400;30.628;2022-08-21T12:30:48;21.27;;;4.47;;
36213;SDS011;37652;50.400;30.628;2022-08-21T12:32:57;23.73;;;3.88;;
36213;SDS011;37652;50.400;30.628;2022-08-21T12:35:07;22.33;;;3.90;;
36213;SDS011;37652;50.400;30.628;2022-08-21T12:37:15;27.17;;;4.22;;
36213;SDS011;37652;50.400;30.628;2022-08-21T12:39:46;16.55;;;3.90;;
36213;SDS011;37652;50.400;30.628;2022-08-21T12:41:53;18.40;;;3.72;;
36213;SDS011;37652;50.400;30.628;2022-08-21T12:44:17;23.20;;;4.25;;
36213;SDS011;37652;50.400;30.628;2022-08-21T12:46:27;21.42;;;4.03;;
36213;SDS011;37652;50.400;30.628;2022-08-21T12:49:01;18.77;;;3.55;;
36213;SDS011;37652;50.400;30.628;2022-08-21T12:51:10;19.98;;;3.20;;
36213;SDS011;37652;50.400;30.628;2022-08-21T12:55:30;23.42;;;4.15;;
36213;SDS011;37652;50.400;30.628;2022-08-21T12:57:32;15.60;;;3.70;;
36213;SDS011;37652;50.400;30.628;2022-08-21T12:59:37;22.33;;;3.47;;
36213;SDS011;37652;50.400;30.628;2022-08-21T13:01:49;23.88;;;3.80;;
36213;SDS011;37652;50.400;30.628;2022-08-21T13:03:52;23.02;;;3.80;;
36213;SDS011;37652;50.400;30.628;2022-08-21T13:05:55;27.92;;;3.90;;
36213;SDS011;37652;50.400;30.628;2022-08-21T13:07:57;23.10;;;3.85;;
36213;SDS011;37652;50.400;30.628;2022-08-21T13:10:05;23.77;;;3.58;;
36213;SDS011;37652;50.400;30.628;2022-08-21T13:12:14;29.83;;;4.10;;
36213;SDS011;37652;50.400;30.628;2022-08-21T13:14:38;22.30;;;4.80;;
36213;SDS011;37652;50.400;30.628;2022-08-21T13:16:41;19.73;;;3.92;;
36213;SDS011;37652;50.400;30.628;2022-08-21T13:18:52;19.67;;;4.30;;
36213;SDS011;37652;50.400;30.628;2022-08-21T13:23:29;28.77;;;3.30;;
36213;SDS011;37652;50.400;30.628;2022-08-21T13:25:34;17.75;;;3.42;;
36213;SDS011;37652;50.400;30.628;2022-08-21T13:27:36;26.45;;;4.18;;
36213;SDS011;37652;50.400;30.628;2022-08-21T13:29:37;15.43;;;3.85;;
36213;SDS011;37652;50.400;30.628;2022-08-21T13:31:39;22.50;;;3.72;;
36213;SDS011;37652;50.400;30.628;2022-08-21T13:33:42;16.30;;;3.30;;
36213;SDS011;37652;50.400;30.628;2022-08-21T13:35:48;17.30;;;3.33;;
36213;SDS011;37652;50.400;30.628;2022-08-21T13:37:55;22.35;;;4.00;;
36213;SDS011;37652;50.400;30.628;2022-08-21T13:39:56;22.48;;;3.90;;
36213;SDS011;37652;50.400;30.628;2022-08-21T13:41:58;21.88;;;3.90;;
36213;SDS011;37652;50.400;30.628;2022-08-21T13:44:02;16.05;;;3.83;;
36213;SDS011;37652;50.400;30.628;2022-08-21T13:46:09;16.40;;;3.50;;
36213;SDS011;37652;50.400;30.628;2022-08-21T13:48:12;18.17;;;4.10;;
36213;SDS011;37652;50.400;30.628;2022-08-21T13:50:14;19.42;;;4.25;;
36213;SDS011;37652;50.400;30.628;2022-08-21T13:52:21;19.25;;;4.28;;
36213;SDS011;37652;50.400;30.628;2022-08-21T13:56:29;18.60;;;4.18;;
36213;SDS011;37652;50.400;30.628;2022-08-21T13:58:43;23.15;;;3.47;;
36213;SDS011;37652;50.400;30.628;2022-08-21T14:00:47;21.85;;;3.67;;
36213;SDS011;37652;50.400;30.628;2022-08-21T14:02:50;28.00;;;3.95;;
36213;SDS011;37652;50.400;30.628;2022-08-21T14:05:02;23.80;;;3.90;;
36213;SDS011;37652;50.400;30.628;2022-08-21T14:07:14;16.25;;;3.70;;
36213;SDS011;37652;50.400;30.628;2022-08-21T14:09:34;24.08;;;4.15;;
36213;SDS011;37652;50.400;30.628;2022-08-21T14:11:42;22.45;;;3.88;;
36213;SDS011;37652;50.400;30.628;2022-08-21T14:14:20;21.38;;;3.42;;
36213;SDS011;37652;50.400;30.628;2022-08-21T14:16:41;23.67;;;3.47;;